Time;durP1;ratioP1;P1;durP2;ratioP2;P2;SDS_P1;SDS_P2;PMS_P1;PMS_P2;Temp;Humidity;BMP_temperature;BMP_pressure;BME280_temperature;BME280_humidity;BME280_pressure;Samples;Min_cycle;Max_cycle;Signal;HPM_P1;HPM_P2
2021/06/05 00:01:58;;;;;;;8.05;3.75;;;16.80;51.90;;;;;;5072599;28;20028;-82
2021/06/05 00:04:24;;;;;;;8.95;4.07;;;16.90;52.00;;;;;;5072903;28;20036;-83
2021/06/05 00:06:50;;;;;;;11.20;3.35;;;16.90;51.90;;;;;;5072301;28;20378;-82
2021/06/05 00:09:19;;;;;;;12.00;4.00;;;16.90;51.90;;;;;;5072356;28;20028;-82
2021/06/05 00:11:45;;;;;;;9.85;3.58;;;16.90;51.90;;;;;;5072663;28;20444;-82
2021/06/05 00:14:13;;;;;;;10.27;3.42;;;16.90;51.90;;;;;;5072858;28;20024;-84
2021/06/05 00:16:46;;;;;;;10.63;3.50;;;16.90;51.90;;;;;;5070248;28;20021;-82
2021/06/05 00:19:13;;;;;;;6.40;3.00;;;16.90;51.90;;;;;;5071289;28;20027;-84
2021/06/05 00:21:40;;;;;;;8.63;3.30;;;16.80;51.80;;;;;;5084100;28;20080;-81
2021/06/05 00:24:07;;;;;;;11.30;3.70;;;16.90;52.00;;;;;;5082041;28;20012;-83
2021/06/05 00:26:33;;;;;;;8.30;3.35;;;16.90;52.00;;;;;;5072454;28;20091;-82
2021/06/05 00:29:00;;;;;;;11.75;3.53;;;16.90;52.10;;;;;;5069723;28;20493;-82
2021/06/05 00:31:27;;;;;;;6.17;3.57;;;16.80;52.00;;;;;;5072715;28;20029;-80
2021/06/05 00:33:53;;;;;;;10.52;3.25;;;16.80;52.30;;;;;;5086584;28;20028;-82
2021/06/05 00:36:19;;;;;;;8.23;3.63;;;16.80;52.40;;;;;;5086127;28;20029;-81
2021/06/05 00:38:46;;;;;;;9.63;3.60;;;16.70;52.60;;;;;;5063392;28;20389;-82
2021/06/05 00:41:16;;;;;;;9.48;3.50;;;16.70;52.40;;;;;;5072218;28;20020;-82
2021/06/05 00:43:48;;;;;;;9.60;3.28;;;16.70;52.50;;;;;;5072701;28;20036;-81
2021/06/05 00:46:16;;;;;;;11.30;4.28;;;16.70;52.80;;;;;;5072004;28;20048;-80
2021/06/05 00:48:42;;;;;;;11.55;3.95;;;16.60;52.90;;;;;;5057135;28;20025;-82
2021/06/05 00:51:09;;;;;;;9.40;3.25;;;16.50;52.90;;;;;;5075204;28;20013;-81
2021/06/05 00:53:39;;;;;;;10.15;4.35;;;16.50;53.30;;;;;;5073861;28;20020;-80
2021/06/05 00:56:09;;;;;;;11.23;3.75;;;16.40;53.50;;;;;;5072425;28;20040;-81
2021/06/05 00:58:35;;;;;;;9.50;3.30;;;16.40;53.80;;;;;;5072254;28;20823;-80
2021/06/05 01:01:09;;;;;;;9.57;3.47;;;16.30;53.90;;;;;;5072143;28;20118;-82
2021/06/05 01:03:36;;;;;;;12.18;3.53;;;16.20;54.10;;;;;;5072753;28;20133;-82
2021/06/05 01:06:07;;;;;;;;;;;16.10;55.10;;;;;;5073253;28;20412;-81
2021/06/05 01:08:36;;;;;;;8.38;3.30;;;16.00;54.30;;;;;;5072756;28;19909;-81
2021/06/05 01:11:16;;;;;;;11.98;3.47;;;15.90;54.90;;;;;;5072227;28;20023;-81
2021/06/05 01:14:03;;;;;;;6.13;3.15;;;15.80;55.30;;;;;;5072031;28;20029;-82
2021/06/05 01:16:30;;;;;;;9.07;3.40;;;15.70;55.40;;;;;;5071818;28;20493;-83
2021/06/05 01:19:03;;;;;;;12.10;3.65;;;15.70;55.60;;;;;;5072098;28;20477;-83
2021/06/05 01:21:55;;;;;;;7.47;3.63;;;15.60;55.80;;;;;;5058835;28;20027;-82
2021/06/05 01:24:29;;;;;;;9.82;3.45;;;15.60;55.70;;;;;;5075896;28;20040;-81
2021/06/05 01:27:04;;;;;;;8.18;3.47;;;15.60;56.00;;;;;;5075511;28;20063;-82
2021/06/05 01:29:36;;;;;;;8.70;2.92;;;15.60;55.80;;;;;;5075279;28;20442;-82
2021/06/05 01:32:07;;;;;;;5.95;2.95;;;15.60;55.90;;;;;;5058548;28;20047;-82
2021/06/05 01:34:40;;;;;;;6.28;3.13;;;15.70;56.00;;;;;;5074791;28;20024;-83
2021/06/05 01:37:08;;;;;;;8.82;3.25;;;15.70;55.80;;;;;;5075250;28;20116;-82
2021/06/05 01:39:37;;;;;;;8.38;3.75;;;15.70;55.80;;;;;;5075449;28;20013;-81
2021/06/05 01:42:32;;;;;;;8.07;3.72;;;15.70;55.90;;;;;;5057229;28;20016;-81
2021/06/05 01:44:59;;;;;;;4.60;2.83;;;15.70;55.60;;;;;;5069797;28;20086;-82
2021/06/05 01:47:27;;;;;;;5.45;2.63;;;15.80;55.50;;;;;;5075157;28;20030;-82
2021/06/05 01:49:53;;;;;;;;;;;15.80;55.10;;;;;;5075264;28;20091;-82
2021/06/05 01:52:31;;;;;;;7.82;3.10;;;15.80;54.60;;;;;;5074944;28;19995;-80
2021/06/05 01:55:10;;;;;;;7.35;3.20;;;15.90;55.10;;;;;;5074623;28;20091;-81
2021/06/05 01:57:38;;;;;;;8.05;3.20;;;15.90;54.90;;;;;;5050842;28;20029;-81
2021/06/05 02:00:18;;;;;;;8.70;2.88;;;15.90;54.70;;;;;;5074932;28;20025;-79
2021/06/05 02:02:44;;;;;;;7.60;3.10;;;15.90;54.70;;;;;;5057001;28;20477;-82
2021/06/05 02:05:11;;;;;;;7.35;2.80;;;16.00;54.70;;;;;;5075797;28;20043;-84
2021/06/05 02:07:37;;;;;;;5.20;3.57;;;16.00;54.60;;;;;;5075162;28;20021;-81
2021/06/05 02:10:13;;;;;;;7.43;3.63;;;16.00;54.50;;;;;;5068002;28;20262;-80
2021/06/05 02:12:40;;;;;;;8.47;2.90;;;16.00;54.50;;;;;;5060191;28;20013;-80
2021/06/05 02:15:29;;;;;;;7.68;3.30;;;16.10;54.30;;;;;;5074886;28;20424;-80
2021/06/05 02:17:57;;;;;;;7.53;3.03;;;16.10;54.20;;;;;;5073839;28;20206;-81
2021/06/05 02:20:26;;;;;;;6.07;3.65;;;16.10;54.10;;;;;;5074556;28;20117;-80
2021/06/05 02:22:56;;;;;;;8.80;3.25;;;16.10;54.30;;;;;;5074292;28;20021;-82
2021/06/05 02:25:24;;;;;;;9.45;3.20;;;16.10;54.20;;;;;;5061926;28;20083;-81
2021/06/05 02:27:59;;;;;;;13.02;4.10;;;16.10;54.10;;;;;;5073908;28;20123;-82
2021/06/05 02:30:27;;;;;;;5.38;2.72;;;16.20;54.10;;;;;;5080838;28;20021;-80
2021/06/05 02:32:54;;;;;;;8.10;3.33;;;16.20;53.70;;;;;;5088723;28;20020;-83
2021/06/05 02:35:25;;;;;;;6.88;3.53;;;16.20;53.80;;;;;;5067857;28;20032;-81
2021/06/05 02:37:51;;;;;;;13.65;4.20;;;16.40;53.40;;;;;;5071343;28;20119;-81
2021/06/05 02:40:23;;;;;;;10.88;3.30;;;16.40;53.00;;;;;;5073621;28;20115;-81
2021/06/05 02:42:49;;;;;;;14.02;3.75;;;16.50;52.70;;;;;;5073989;28;20112;-81
2021/06/05 02:45:30;;;;;;;9.27;3.35;;;16.60;52.80;;;;;;5067831;28;20021;-82
2021/06/05 02:48:06;;;;;;;8.93;3.35;;;16.70;52.80;;;;;;5075912;28;20066;-79
2021/06/05 02:50:40;;;;;;;10.47;4.03;;;16.80;52.80;;;;;;5074738;28;20021;-78
2021/06/05 02:53:19;;;;;;;9.93;3.70;;;16.80;52.30;;;;;;5074578;28;20021;-83
2021/06/05 02:55:46;;;;;;;6.18;3.17;;;16.90;52.30;;;;;;5073821;28;20088;-80
2021/06/05 02:58:13;;;;;;;8.85;4.07;;;17.10;52.40;;;;;;5073561;28;20370;-80
2021/06/05 03:00:45;;;;;;;7.22;3.47;;;17.30;51.50;;;;;;5073322;28;20535;-81
2021/06/05 03:03:13;;;;;;;6.95;3.25;;;17.40;50.80;;;;;;5073707;28;20032;-81
2021/06/05 03:05:39;;;;;;;;;;;17.50;50.10;;;;;;5074661;28;20028;-80
2021/06/05 03:08:12;;;;;;;9.03;2.83;;;17.60;50.40;;;;;;5074475;28;19915;-81
2021/06/05 03:10:39;;;;;;;11.13;4.15;;;17.70;49.70;;;;;;5073814;28;20016;-81
2021/06/05 03:13:07;;;;;;;6.30;2.60;;;17.80;49.80;;;;;;5073360;28;20027;-80
2021/06/05 03:15:33;;;;;;;7.25;2.97;;;17.90;49.10;;;;;;5073291;28;20017;-82
2021/06/05 03:18:00;;;;;;;8.02;3.15;;;18.00;48.80;;;;;;5073269;28;20116;-82
2021/06/05 03:20:32;;;;;;;11.18;3.40;;;18.20;48.70;;;;;;5073617;28;20052;-81
2021/06/05 03:22:58;;;;;;;6.97;2.78;;;18.20;48.50;;;;;;5073214;28;20098;-82
2021/06/05 03:25:24;;;;;;;7.72;3.17;;;18.20;48.00;;;;;;5073976;28;20503;-81
2021/06/05 03:27:51;;;;;;;5.22;2.90;;;18.20;47.90;;;;;;5073292;28;20040;-80
2021/06/05 03:30:20;;;;;;;9.13;2.72;;;18.20;48.20;;;;;;5072906;28;20016;-80
2021/06/05 03:32:46;;;;;;;6.00;3.22;;;18.30;48.40;;;;;;5057314;28;20495;-82
2021/06/05 03:35:13;;;;;;;7.35;2.78;;;18.50;48.20;;;;;;5072869;28;20103;-81
2021/06/05 03:37:39;;;;;;;4.93;2.33;;;18.50;48.20;;;;;;5072874;28;20384;-81
2021/06/05 03:40:09;;;;;;;5.45;2.60;;;18.50;47.90;;;;;;5072982;28;20023;-81
2021/06/05 03:42:34;;;;;;;13.65;4.05;;;18.60;47.60;;;;;;5072520;28;20031;-79
2021/06/05 03:45:00;;;;;;;9.93;3.55;;;18.60;47.80;;;;;;5072442;28;20029;-81
2021/06/05 03:47:26;;;;;;;8.63;3.22;;;18.60;47.60;;;;;;5072716;28;20033;-81
2021/06/05 03:49:53;;;;;;;7.13;3.97;;;18.60;47.30;;;;;;5072401;28;20032;-80
2021/06/05 03:52:23;;;;;;;11.48;3.97;;;18.50;47.40;;;;;;5072827;28;20107;-81
2021/06/05 03:54:51;;;;;;;12.77;4.15;;;18.50;47.00;;;;;;5072520;28;20020;-80
2021/06/05 03:57:19;;;;;;;6.93;4.03;;;18.50;47.50;;;;;;5072202;28;20556;-81
2021/06/05 03:59:45;;;;;;;11.10;5.43;;;18.60;47.50;;;;;;5072268;28;20028;-82
2021/06/05 04:02:11;;;;;;;8.02;3.75;;;18.70;47.40;;;;;;5072465;28;20012;-80
2021/06/05 04:04:37;;;;;;;7.60;4.10;;;18.70;47.30;;;;;;5072185;28;20501;-82
2021/06/05 04:07:08;;;;;;;4.82;2.88;;;18.70;47.00;;;;;;5073037;28;20029;-81
2021/06/05 04:09:35;;;;;;;11.80;2.88;;;18.80;46.90;;;;;;5073074;28;20229;-82
2021/06/05 04:12:03;;;;;;;5.18;2.50;;;19.00;46.50;;;;;;5072249;28;20024;-84
2021/06/05 04:14:29;;;;;;;4.72;2.80;;;19.00;46.20;;;;;;5072545;28;20032;-82
2021/06/05 04:16:55;;;;;;;10.00;3.55;;;19.00;45.90;;;;;;5061351;28;20028;-83
2021/06/05 04:19:20;;;;;;;7.30;2.75;;;19.10;46.20;;;;;;5070179;28;20105;-83
2021/06/05 04:21:46;;;;;;;6.05;2.75;;;19.20;46.40;;;;;;5071325;28;20025;-81
2021/06/05 04:24:12;;;;;;;11.75;4.10;;;19.30;46.10;;;;;;5057622;28;20077;-82
2021/06/05 04:26:38;;;;;;;15.07;6.78;;;19.40;46.40;;;;;;5065430;28;20370;-83
2021/06/05 04:29:04;;;;;;;4.93;2.35;;;19.40;46.00;;;;;;5072638;28;20146;-82
2021/06/05 04:31:30;;;;;;;9.18;3.15;;;19.50;45.70;;;;;;5067323;28;20029;-81
2021/06/05 04:33:56;;;;;;;8.43;4.18;;;19.60;45.50;;;;;;5072430;28;20035;-81
2021/06/05 04:36:22;;;;;;;16.52;2.70;;;19.60;45.30;;;;;;5074818;28;20378;-82
2021/06/05 04:38:48;;;;;;;5.35;2.20;;;19.60;45.40;;;;;;5075613;28;20042;-82
2021/06/05 04:41:18;;;;;;;7.35;2.60;;;19.70;45.00;;;;;;5083465;28;20021;-82
2021/06/05 04:43:44;;;;;;;8.45;2.30;;;19.70;44.80;;;;;;5086316;28;20055;-81
2021/06/05 04:46:12;;;;;;;6.00;2.95;;;19.80;44.80;;;;;;5080891;28;20047;-82
2021/06/05 04:48:39;;;;;;;10.45;2.53;;;19.80;45.10;;;;;;5074974;28;20032;-82
2021/06/05 04:51:05;;;;;;;7.57;2.60;;;20.00;44.30;;;;;;5072541;28;20033;-81
2021/06/05 04:53:34;;;;;;;9.55;2.97;;;19.90;43.70;;;;;;5072607;28;20021;-80
2021/06/05 04:56:00;;;;;;;6.28;2.22;;;20.00;44.50;;;;;;5073941;28;20031;-80
2021/06/05 04:58:26;;;;;;;6.65;2.60;;;20.00;43.40;;;;;;5078033;28;20347;-83
2021/06/05 05:00:54;;;;;;;6.72;2.38;;;20.00;43.90;;;;;;5076846;28;20100;-81
2021/06/05 05:03:24;;;;;;;5.97;2.65;;;20.10;44.30;;;;;;5075870;28;20024;-80
2021/06/05 05:05:56;;;;;;;6.30;3.00;;;20.30;43.60;;;;;;5075808;28;20029;-81
2021/06/05 05:08:22;;;;;;;8.23;3.15;;;20.50;42.30;;;;;;5076396;28;20090;-78
2021/06/05 05:10:51;;;;;;;9.20;4.10;;;21.30;41.70;;;;;;5075931;28;20099;-80
2021/06/05 05:13:26;;;;;;;6.93;2.95;;;22.20;39.70;;;;;;5077734;28;20439;-80
2021/06/05 05:15:53;;;;;;;9.95;2.30;;;23.20;38.00;;;;;;5075481;28;20104;-81
2021/06/05 05:18:20;;;;;;;6.32;2.40;;;24.20;36.40;;;;;;5075520;28;20098;-81
2021/06/05 05:20:48;;;;;;;9.10;2.55;;;;;;;;;;5075469;28;20448;-80
2021/06/05 05:23:14;;;;;;;13.93;3.10;;;;;;;;;;5075660;28;20462;-81
2021/06/05 05:25:42;;;;;;;11.93;4.00;;;;;;;;;;5075523;28;20051;-82
2021/06/05 05:28:09;;;;;;;9.48;1.77;;;;;;;;;;5076346;28;20044;-80
2021/06/05 05:30:38;;;;;;;4.85;1.73;;;;;;;;;;5075761;28;20028;-82
2021/06/05 05:33:04;;;;;;;4.35;1.83;;;;;;;;;;5075515;28;20146;-82
2021/06/05 05:35:32;;;;;;;6.05;1.90;;;;;;;;;;5067202;28;20025;-82
2021/06/05 05:38:00;;;;;;;10.55;2.35;;;25.00;35.70;;;;;;5072178;28;20457;-82
2021/06/05 05:40:26;;;;;;;10.82;2.25;;;28.30;30.00;;;;;;5073932;28;20035;-81
2021/06/05 05:42:53;;;;;;;8.95;2.53;;;28.80;29.00;;;;;;5074961;28;20025;-80
2021/06/05 05:45:19;;;;;;;7.80;1.87;;;29.00;28.80;;;;;;5068546;28;20116;-82
2021/06/05 05:47:45;;;;;;;12.60;5.07;;;29.30;28.10;;;;;;5075142;28;20316;-82
2021/06/05 05:50:15;;;;;;;11.88;1.98;;;29.20;28.10;;;;;;5075651;28;20454;-82
2021/06/05 05:52:40;;;;;;;5.00;1.77;;;29.60;28.30;;;;;;5075388;28;20040;-83
2021/06/05 05:55:09;;;;;;;5.47;1.95;;;30.10;27.90;;;;;;5074802;28;20086;-83
2021/06/05 05:57:35;;;;;;;11.35;2.42;;;30.10;28.00;;;;;;5075179;28;20036;-83
2021/06/05 06:00:08;;;;;;;8.73;2.13;;;29.80;28.10;;;;;;5075524;28;20032;-83
2021/06/05 06:02:34;;;;;;;7.57;1.85;;;29.90;27.70;;;;;;5061788;28;20024;-84
2021/06/05 06:04:59;;;;;;;10.50;2.47;;;30.10;27.80;;;;;;5074992;28;20549;-81
2021/06/05 06:07:25;;;;;;;7.22;2.33;;;30.30;27.70;;;;;;5074095;28;20017;-80
2021/06/05 06:09:52;;;;;;;11.98;2.83;;;31.20;27.20;;;;;;5066094;28;20024;-79
2021/06/05 06:12:18;;;;;;;6.70;1.88;;;31.70;26.10;;;;;;5074592;28;20040;-80
2021/06/05 06:14:44;;;;;;;4.05;1.65;;;31.50;25.90;;;;;;5057656;28;20033;-81
2021/06/05 06:17:09;;;;;;;4.97;2.00;;;31.50;25.90;;;;;;5074365;28;20107;-82
2021/06/05 06:19:36;;;;;;;6.15;2.15;;;;;;;;;;5076093;28;20031;-84
2021/06/05 06:22:02;;;;;;;6.15;1.35;;;;;;;;;;5075976;28;20096;-83
2021/06/05 06:24:28;;;;;;;5.72;2.03;;;;;;;;;;5075046;28;20107;-82
2021/06/05 06:26:54;;;;;;;5.35;2.10;;;;;;;;;;5074340;28;20432;-84
2021/06/05 06:29:28;;;;;;;10.25;3.25;;;;;;;;;;5074553;28;20028;-84
2021/06/05 06:31:54;;;;;;;12.13;2.03;;;31.70;25.90;;;;;;5074583;28;20035;-84
2021/06/05 06:34:20;;;;;;;5.72;1.83;;;33.80;24.20;;;;;;5074309;28;20027;-84
2021/06/05 06:36:46;;;;;;;12.68;2.28;;;33.90;24.10;;;;;;5074224;28;20370;-83
2021/06/05 06:39:14;;;;;;;9.40;2.30;;;33.60;23.90;;;;;;5074131;28;20384;-84
2021/06/05 06:41:40;;;;;;;13.57;2.42;;;33.40;24.20;;;;;;5074256;28;20351;-84
2021/06/05 06:44:08;;;;;;;4.93;1.65;;;33.40;24.50;;;;;;5074060;28;20466;-84
2021/06/05 06:46:44;;;;;;;5.38;2.10;;;33.10;24.00;;;;;;5064767;28;20012;-85
2021/06/05 06:49:12;;;;;;;6.60;1.98;;;32.60;23.90;;;;;;5075294;28;20024;-83
2021/06/05 06:51:38;;;;;;;10.75;3.83;;;33.50;24.10;;;;;;5062393;28;20107;-83
2021/06/05 06:54:06;;;;;;;3.25;2.20;;;33.50;23.50;;;;;;5083979;28;20211;-84
2021/06/05 06:56:33;;;;;;;6.05;2.78;;;33.30;23.60;;;;;;5092054;28;20024;-84
2021/06/05 06:58:59;;;;;;;9.43;2.65;;;32.60;23.90;;;;;;5085294;28;20098;-84
2021/06/05 07:01:25;;;;;;;10.57;3.95;;;32.60;24.50;;;;;;5066901;28;20493;-84
2021/06/05 07:03:54;;;;;;;9.77;3.40;;;33.50;24.40;;;;;;5074026;28;20031;-85
2021/06/05 07:06:22;;;;;;;4.75;1.50;;;33.90;24.10;;;;;;5074831;28;20036;-85
2021/06/05 07:08:48;;;;;;;5.80;2.10;;;34.20;23.60;;;;;;5074865;28;20032;-84
2021/06/05 07:11:17;;;;;;;12.82;3.50;;;33.90;23.60;;;;;;5079850;28;20021;-83
2021/06/05 07:13:45;;;;;;;3.35;1.20;;;34.10;23.50;;;;;;5062374;28;20028;-84
2021/06/05 07:16:11;;;;;;;4.47;1.50;;;34.60;22.80;;;;;;5074117;28;20035;-84
2021/06/05 07:18:38;;;;;;;7.05;2.13;;;34.00;22.90;;;;;;5073922;28;20028;-82
2021/06/05 07:21:06;;;;;;;9.38;2.60;;;33.50;23.30;;;;;;5074002;28;20017;-87
2021/06/05 07:23:33;;;;;;;6.05;2.10;;;33.10;23.60;;;;;;5056352;28;20028;-82
2021/06/05 07:26:07;;;;;;;11.48;2.38;;;33.70;23.70;;;;;;5073071;28;20061;-84
2021/06/05 07:28:42;;;;;;;3.78;1.35;;;35.00;23.30;;;;;;5074299;28;20039;-83
2021/06/05 07:31:10;;;;;;;4.32;1.45;;;34.90;22.80;;;;;;5075141;28;20091;-84
2021/06/05 07:33:37;;;;;;;3.15;1.38;;;34.00;23.00;;;;;;5073492;28;20024;-84
2021/06/05 07:36:04;;;;;;;6.32;1.80;;;34.20;23.00;;;;;;5072867;28;20021;-82
2021/06/05 07:38:30;;;;;;;9.40;1.70;;;35.10;23.20;;;;;;5073432;28;20036;-82
2021/06/05 07:40:57;;;;;;;3.60;1.50;;;35.00;22.60;;;;;;5072895;28;20047;-82
2021/06/05 07:43:26;;;;;;;8.50;2.42;;;34.50;22.70;;;;;;5073002;28;20016;-82
2021/06/05 07:45:54;;;;;;;4.32;2.22;;;34.70;22.50;;;;;;5073337;28;20021;-83
2021/06/05 07:48:22;;;;;;;10.10;3.00;;;34.00;22.90;;;;;;5073424;28;20021;-83
2021/06/05 07:50:48;;;;;;;9.07;1.88;;;33.90;23.30;;;;;;5073149;28;20029;-81
2021/06/05 07:53:14;;;;;;;7.77;1.93;;;;;;;;;;5072744;28;20020;-84
2021/06/05 07:55:42;;;;;;;5.63;2.00;;;;;;;;;;5072887;28;20066;-81
2021/06/05 07:58:09;;;;;;;6.78;2.30;;;35.30;23.10;;;;;;5073053;28;20055;-84
2021/06/05 08:00:36;;;;;;;3.92;2.03;;;36.30;22.50;;;;;;5073976;28;20032;-84
2021/06/05 08:03:02;;;;;;;7.80;3.28;;;35.60;22.30;;;;;;5066010;28;20052;-85
2021/06/05 08:05:28;;;;;;;3.40;1.42;;;35.00;22.90;;;;;;5055134;28;20056;-86
2021/06/05 08:07:54;;;;;;;4.60;1.80;;;34.80;22.70;;;;;;5073515;28;20126;-85
2021/06/05 08:10:23;;;;;;;12.15;1.55;;;34.80;23.10;;;;;;5073091;28;20020;-85
2021/06/05 08:12:49;;;;;;;6.05;1.30;;;35.00;22.80;;;;;;5073470;28;20021;-86
2021/06/05 08:15:20;;;;;;;5.25;2.08;;;35.30;23.30;;;;;;5072825;28;20033;-83
2021/06/05 08:17:46;;;;;;;7.30;1.60;;;34.70;23.10;;;;;;5073795;28;20046;-82
2021/06/05 08:20:22;;;;;;;6.47;2.00;;;34.80;23.40;;;;;;5073515;28;20024;-83
2021/06/05 08:22:49;;;;;;;3.42;1.25;;;36.20;23.40;;;;;;5073683;28;20428;-86
2021/06/05 08:25:15;;;;;;;3.33;1.17;;;36.70;22.80;;;;;;5074582;28;20055;-85
2021/06/05 08:27:43;;;;;;;3.97;1.33;;;36.90;22.40;;;;;;5069069;28;20053;-85
2021/06/05 08:30:16;;;;;;;14.63;4.72;;;36.60;22.30;;;;;;5074420;28;20021;-85
2021/06/05 08:32:42;;;;;;;17.75;5.20;;;37.20;22.30;;;;;;5077396;28;20040;-85
2021/06/05 08:35:09;;;;;;;8.65;1.60;;;37.40;22.00;;;;;;5074556;28;20043;-84
2021/06/05 08:37:36;;;;;;;6.28;1.92;;;37.40;22.00;;;;;;5077053;28;20086;-82
2021/06/05 08:40:05;;;;;;;11.07;3.90;;;36.50;22.00;;;;;;5076439;28;20020;-80
2021/06/05 08:42:47;;;;;;;7.30;1.92;;;35.60;22.20;;;;;;5075239;28;20040;-80
2021/06/05 08:45:16;;;;;;;5.28;1.83;;;34.90;23.00;;;;;;5073885;28;20377;-81
2021/06/05 08:47:42;;;;;;;5.28;1.60;;;35.80;23.00;;;;;;5076060;28;20385;-81
2021/06/05 08:50:13;;;;;;;8.13;2.15;;;36.30;22.80;;;;;;5076491;28;20105;-81
2021/06/05 08:53:13;;;;;;;6.30;1.77;;;35.90;22.30;;;;;;5076818;28;20025;-81
2021/06/05 08:55:47;;;;;;;9.90;2.40;;;36.60;22.80;;;;;;5072471;28;20048;-83
2021/06/05 08:58:33;;;;;;;9.68;1.52;;;37.60;22.30;;;;;;5065219;28;20036;-83
2021/06/05 09:01:11;;;;;;;2.85;1.58;;;38.30;21.60;;;;;;5067344;28;20074;-82
2021/06/05 09:03:38;;;;;;;5.20;1.50;;;37.40;21.90;;;;;;5073227;28;20013;-83
2021/06/05 09:06:12;;;;;;;3.17;1.38;;;37.00;21.70;;;;;;5075372;28;20024;-83
2021/06/05 09:08:38;;;;;;;10.98;1.92;;;37.00;21.60;;;;;;5069055;28;20035;-81
2021/06/05 09:11:11;;;;;;;9.13;2.08;;;36.80;22.10;;;;;;5086570;28;20110;-81
2021/06/05 09:13:39;;;;;;;4.45;1.33;;;36.50;21.60;;;;;;5089176;28;20021;-82
2021/06/05 09:16:20;;;;;;;4.88;1.70;;;36.30;22.10;;;;;;5073971;28;20044;-81
2021/06/05 09:18:56;;;;;;;4.80;1.70;;;35.90;22.00;;;;;;5060812;28;20080;-84
2021/06/05 09:21:32;;;;;;;9.15;1.60;;;35.80;22.00;;;;;;5081232;28;20021;-82
2021/06/05 09:24:16;;;;;;;10.38;2.38;;;35.80;22.00;;;;;;5080192;28;20028;-82
2021/06/05 09:26:46;;;;;;;5.78;1.73;;;36.20;22.30;;;;;;5076337;28;20048;-84
2021/06/05 09:29:20;;;;;;;7.38;2.67;;;37.20;22.00;;;;;;5076646;28;20020;-81
2021/06/05 09:32:06;;;;;;;5.45;2.35;;;36.60;22.10;;;;;;5075833;28;20025;-83
2021/06/05 09:34:42;;;;;;;5.30;1.77;;;36.40;22.00;;;;;;5076514;28;20016;-85
2021/06/05 09:37:32;;;;;;;8.45;2.00;;;36.40;22.50;;;;;;5078482;28;20040;-85
2021/06/05 09:40:07;;;;;;;8.20;1.77;;;36.90;22.10;;;;;;5072259;28;20095;-87
2021/06/05 09:42:39;;;;;;;10.13;3.22;;;;;;;;;;5078912;28;20036;-82
2021/06/05 09:45:08;;;;;;;6.07;1.48;;;35.80;22.30;;;;;;5068489;28;20036;-83
2021/06/05 09:47:35;;;;;;;8.98;3.55;;;34.70;23.00;;;;;;5075245;28;20378;-86
2021/06/05 09:50:31;;;;;;;7.63;3.03;;;35.20;23.10;;;;;;5070984;28;20024;-85
2021/06/05 09:53:14;;;;;;;9.43;2.95;;;34.80;22.90;;;;;;5070859;28;20493;-83
2021/06/05 09:55:41;;;;;;;8.50;2.72;;;34.70;22.70;;;;;;5074900;28;20076;-84
2021/06/05 09:58:11;;;;;;;5.70;1.80;;;34.70;22.80;;;;;;5075039;28;20493;-84
2021/06/05 10:00:41;;;;;;;5.38;1.60;;;35.10;22.40;;;;;;5073796;28;20107;-85
2021/06/05 10:03:28;;;;;;;4.45;1.67;;;35.00;22.10;;;;;;5074764;28;20374;-85
2021/06/05 10:05:54;;;;;;;7.20;1.80;;;35.30;22.40;;;;;;5062353;28;20017;-84
2021/06/05 10:08:26;;;;;;;9.98;2.67;;;35.20;22.60;;;;;;5075548;28;20044;-84
2021/06/05 10:10:58;;;;;;;11.98;3.95;;;;;;;;;;5074293;28;20017;-83
2021/06/05 10:13:27;;;;;;;9.07;2.45;;;;;;;;;;5075382;28;20108;-83
2021/06/05 10:15:55;;;;;;;7.18;4.18;;;;;;;;;;5075166;28;20030;-83
2021/06/05 10:18:24;;;;;;;12.90;2.40;;;;;;;;;;5075480;28;20064;-85
2021/06/05 10:20:56;;;;;;;4.28;1.50;;;;;;;;;;5074374;28;20012;-82
2021/06/05 10:23:24;;;;;;;6.32;2.00;;;;;;;;;;5074509;28;20382;-82
2021/06/05 10:25:57;;;;;;;4.22;1.63;;;34.20;22.50;;;;;;5069229;28;20033;-81
2021/06/05 10:28:48;;;;;;;4.20;1.90;;;33.20;23.40;;;;;;5073979;28;20052;-81
2021/06/05 10:31:18;;;;;;;7.57;2.72;;;31.40;24.30;;;;;;5071473;28;20028;-82
2021/06/05 10:33:57;;;;;;;5.00;1.58;;;29.90;25.60;;;;;;5073132;28;20535;-83
2021/06/05 10:36:25;;;;;;;5.65;1.83;;;28.50;26.40;;;;;;5074372;28;20033;-84
2021/06/05 10:39:05;;;;;;;4.55;1.80;;;27.30;27.20;;;;;;5075342;28;20029;-82
2021/06/05 10:41:35;;;;;;;7.03;2.63;;;;;;;;;;5074445;28;20024;-82
2021/06/05 10:44:01;;;;;;;7.65;2.10;;;;;;;;;;5074733;28;20025;-81
2021/06/05 10:46:31;;;;;;;5.32;1.92;;;;;;;;;;5073737;28;20107;-82
2021/06/05 10:49:16;;;;;;;4.22;1.80;;;;;;;;;;5053646;28;20032;-83
2021/06/05 10:51:45;;;;;;;7.55;2.15;;;;;;;;;;5073671;28;20054;-86
2021/06/05 10:54:16;;;;;;;4.88;2.10;;;;;;;;;;5073763;28;20051;-87
2021/06/05 10:57:07;;;;;;;4.28;2.13;;;25.80;30.00;;;;;;5075801;28;20024;-84
2021/06/05 11:00:05;;;;;;;7.65;2.35;;;25.50;30.30;;;;;;5064613;28;20040;-86
2021/06/05 11:02:36;;;;;;;6.72;1.95;;;;;;;;;;5024965;28;20478;-83
2021/06/05 11:05:31;;;;;;;6.07;2.20;;;;;;;;;;5074604;28;20028;-84
2021/06/05 11:08:16;;;;;;;7.97;2.22;;;;;;;;;;5058350;28;20043;-84
2021/06/05 11:10:50;;;;;;;8.82;2.20;;;;;;;;;;5076029;28;20025;-81
2021/06/05 11:13:35;;;;;;;6.72;3.22;;;;;;;;;;5074583;28;20027;-81
2021/06/05 11:16:02;;;;;;;8.80;2.35;;;;;;;;;;5073897;28;20059;-81
2021/06/05 11:18:38;;;;;;;5.32;1.50;;;;;;;;;;5063281;28;20108;-81
2021/06/05 11:21:26;;;;;;;7.75;2.17;;;;;;;;;;5081029;28;20024;-84
2021/06/05 11:23:58;;;;;;;13.93;2.83;;;;;;;;;;5088283;28;20036;-83
2021/06/05 11:26:37;;;;;;;10.93;2.95;;;;;;;;;;5088765;28;20055;-85
2021/06/05 11:29:07;;;;;;;8.02;2.15;;;;;;;;;;5077148;28;20043;-84
2021/06/05 11:31:45;;;;;;;9.45;2.50;;;;;;;;;;5074560;28;20016;-82
2021/06/05 11:34:34;;;;;;;9.13;2.35;;;;;;;;;;5078625;28;20032;-88
2021/06/05 11:37:27;;;;;;;8.35;2.30;;;;;;;;;;5050349;28;20126;-86
2021/06/05 11:39:58;;;;;;;6.40;2.88;;;;;;;;;;5077499;28;20041;-89
2021/06/05 11:42:30;;;;;;;8.25;2.65;;;;;;;;;;5069563;28;20625;-85
2021/06/05 11:44:56;;;;;;;7.53;2.60;;;;;;;;;;5075841;28;20066;-81
2021/06/05 11:47:22;;;;;;;9.63;3.00;;;;;;;;;;5075390;28;20408;-81
2021/06/05 11:49:51;;;;;;;7.78;2.53;;;;;;;;;;5075844;28;20099;-82
2021/06/05 11:52:33;;;;;;;8.10;2.75;;;;;;;;;;5073204;28;20051;-85
2021/06/05 11:55:04;;;;;;;10.20;3.10;;;;;;;;;;5063995;28;20031;-85
2021/06/05 11:57:32;;;;;;;8.30;2.40;;;;;;;;;;5067111;28;20029;-87
2021/06/05 12:00:06;;;;;;;5.85;2.90;;;25.50;30.40;;;;;;5054038;28;20052;-84
2021/06/05 12:02:37;;;;;;;12.23;3.30;;;;;;;;;;5060665;28;20025;-82
2021/06/05 12:05:15;;;;;;;6.03;2.72;;;;;;;;;;5071285;28;20052;-83
2021/06/05 12:07:42;;;;;;;11.45;2.80;;;23.70;37.90;;;;;;5062121;28;20091;-83
2021/06/05 12:10:10;;;;;;;;;;;23.10;39.40;;;;;;5073304;28;20036;-84
2021/06/05 12:12:43;;;;;;;9.18;3.17;;;22.90;38.90;;;;;;5072443;28;19938;-84
2021/06/05 12:15:24;;;;;;;8.10;3.55;;;22.80;40.20;;;;;;5073029;28;20028;-84
2021/06/05 12:18:02;;;;;;;8.93;2.85;;;22.80;40.30;;;;;;5073240;28;20029;-84
2021/06/05 12:20:48;;;;;;;14.32;3.80;;;22.70;40.30;;;;;;5061149;28;20084;-84
2021/06/05 12:23:34;;;;;;;6.65;2.75;;;22.70;40.40;;;;;;5061747;28;20024;-82
2021/06/05 12:26:18;;;;;;;9.63;3.17;;;22.90;39.90;;;;;;5071906;28;20428;-81
2021/06/05 12:28:47;;;;;;;8.13;2.50;;;22.80;39.50;;;;;;5053377;28;20118;-80
2021/06/05 12:31:30;;;;;;;15.45;3.22;;;22.70;40.00;;;;;;5049379;28;20017;-79
2021/06/05 12:34:02;;;;;;;8.88;2.40;;;22.70;40.40;;;;;;5050459;28;20024;-78
2021/06/05 12:36:43;;;;;;;8.57;3.08;;;22.80;40.30;;;;;;5017148;28;20060;-79
2021/06/05 12:39:34;;;;;;;4.72;2.42;;;22.80;40.30;;;;;;5049991;28;20029;-81
2021/06/05 12:42:01;;;;;;;4.15;2.97;;;22.70;40.40;;;;;;5046943;28;20485;-79
2021/06/05 12:44:31;;;;;;;8.30;3.05;;;22.70;40.80;;;;;;5048074;28;20036;-81
2021/06/05 12:46:58;;;;;;;16.70;3.67;;;22.70;40.70;;;;;;5035244;28;20053;-78
2021/06/05 12:49:28;;;;;;;10.32;3.28;;;22.80;40.90;;;;;;5037474;28;20116;-78
2021/06/05 12:52:00;;;;;;;6.47;3.35;;;23.00;40.70;;;;;;5034618;28;20106;-77
2021/06/05 12:54:37;;;;;;;11.20;3.42;;;23.20;40.60;;;;;;5037828;28;20347;-78
2021/06/05 12:57:44;;;;;;;7.55;3.40;;;23.20;40.50;;;;;;5031551;28;20076;-77
2021/06/05 13:00:28;;;;;;;10.77;3.40;;;23.20;40.50;;;;;;5001865;28;20419;-78
2021/06/05 13:03:19;;;;;;;11.65;3.90;;;23.10;41.00;;;;;;5040670;28;20099;-80
2021/06/05 13:06:42;;;;;;;8.93;3.75;;;23.10;41.60;;;;;;5025159;28;20044;-80
2021/06/05 13:09:30;;;;;;;8.07;3.60;;;23.00;41.10;;;;;;4986094;28;20019;-78
2021/06/05 13:11:59;;;;;;;9.48;3.50;;;22.90;41.70;;;;;;4987820;28;20069;-80
2021/06/05 13:14:38;;;;;;;8.27;3.50;;;22.80;41.80;;;;;;5029143;28;20122;-81
2021/06/05 13:17:08;;;;;;;12.98;3.50;;;22.70;42.20;;;;;;5050925;28;20107;-79
2021/06/05 13:19:37;;;;;;;11.05;4.65;;;22.70;42.30;;;;;;5051338;28;20397;-81
2021/06/05 13:22:23;;;;;;;9.82;3.60;;;22.70;42.50;;;;;;5056676;28;20025;-82
2021/06/05 13:25:11;;;;;;;13.97;5.40;;;22.80;42.40;;;;;;5056259;28;20025;-81